Time;durP1;ratioP1;P1;durP2;ratioP2;P2;SDS_P1;SDS_P2;PMS_P1;PMS_P2;Temp;Humidity;BMP_temperature;BMP_pressure;BME280_temperature;BME280_humidity;BME280_pressure;Samples;Min_cycle;Max_cycle;Signal;HPM_P1;HPM_P2
2022/03/04 00:00:06;;;;;;;;;;;22.30;26.70;;;;;;462988;257;999;-40
2022/03/04 00:02:07;;;;;;;;;;;22.40;26.60;;;;;;462859;257;2210;-40
2022/03/04 00:04:09;;;;;;;;;;;22.40;26.60;;;;;;463218;257;1048;-40
2022/03/04 00:06:10;;;;;;;;;;;22.40;26.60;;;;;;462728;257;1542;-40
2022/03/04 00:08:11;;;;;;;;;;;22.40;26.50;;;;;;463234;257;1160;-40
2022/03/04 00:10:13;;;;;;;;;;;22.40;26.60;;;;;;463143;257;1083;-40
2022/03/04 00:12:14;;;;;;;;;;;22.40;26.60;;;;;;462777;257;1192;-40
2022/03/04 00:14:15;;;;;;;;;;;22.40;26.60;;;;;;462834;257;1040;-40
2022/03/04 00:16:16;;;;;;;;;;;22.40;26.50;;;;;;462764;257;1366;-40
2022/03/04 00:18:18;;;;;;;;;;;22.40;26.60;;;;;;462736;257;1198;-40
2022/03/04 00:20:19;;;;;;;;;;;22.40;26.60;;;;;;463147;257;1055;-40
2022/03/04 00:22:21;;;;;;;;;;;22.40;26.60;;;;;;462719;257;2218;-40
2022/03/04 00:24:22;;;;;;;;;;;22.40;26.60;;;;;;463190;257;1076;-40
2022/03/04 00:26:23;;;;;;;;;;;22.40;26.60;;;;;;462728;257;1396;-40
2022/03/04 00:28:24;;;;;;;;;;;22.40;26.60;;;;;;462919;257;1277;-40
2022/03/04 00:30:26;;;;;;;;;;;22.40;26.60;;;;;;462809;257;1048;-40
2022/03/04 00:32:27;;;;;;;;;;;22.40;26.60;;;;;;463146;257;1223;-40
2022/03/04 00:34:28;;;;;;;;;;;22.40;26.60;;;;;;463193;257;1082;-40
2022/03/04 00:36:30;;;;;;;;;;;22.40;26.60;;;;;;463151;257;1356;-40
2022/03/04 00:38:31;;;;;;;;;;;22.40;26.60;;;;;;463105;257;1158;-40
2022/03/04 00:40:32;;;;;;;;;;;22.40;26.60;;;;;;462771;257;1313;-40
2022/03/04 00:42:34;;;;;;;;;;;22.40;26.60;;;;;;462720;257;2199;-40
2022/03/04 00:44:35;;;;;;;;;;;22.40;26.60;;;;;;462789;257;1046;-40
2022/03/04 00:46:36;;;;;;;;;;;22.30;26.60;;;;;;463021;257;1215;-40
2022/03/04 00:48:38;;;;;;;;;;;22.40;26.60;;;;;;462735;257;1089;-40
2022/03/04 00:50:39;;;;;;;;;;;22.30;26.60;;;;;;463177;257;1528;-40
2022/03/04 00:52:40;;;;;;;;;;;22.30;26.60;;;;;;462779;257;1010;-40
2022/03/04 00:54:41;;;;;;;;;;;22.40;26.60;;;;;;462841;257;1061;-40
2022/03/04 00:57:01;;;;;;;;;;;22.40;26.50;;;;;;462797;257;1259;-40
2022/03/04 00:59:03;;;;;;;;;;;22.40;26.60;;;;;;462766;257;1053;-40
2022/03/04 01:01:05;;;;;;;;;;;22.40;26.60;;;;;;463194;255;1937;-40
2022/03/04 01:03:06;;;;;;;;;;;22.40;26.60;;;;;;463078;257;2132;-40
2022/03/04 01:05:07;;;;;;;;;;;22.40;26.50;;;;;;463222;257;1058;-40
2022/03/04 01:07:09;;;;;;;;;;;22.40;26.50;;;;;;463145;257;1194;-40
2022/03/04 01:09:10;;;;;;;;;;;22.40;26.50;;;;;;462858;257;1046;-40
2022/03/04 01:11:11;;;;;;;;;;;22.40;26.50;;;;;;463041;257;1244;-40
2022/03/04 01:13:12;;;;;;;;;;;22.40;26.50;;;;;;462786;257;1264;-40
2022/03/04 01:15:14;;;;;;;;;;;22.40;26.50;;;;;;462764;257;1129;-40
2022/03/04 01:17:15;;;;;;;;;;;22.40;26.50;;;;;;462691;255;1265;-40
2022/03/04 01:19:16;;;;;;;;;;;22.40;26.60;;;;;;462960;257;1079;-40
2022/03/04 01:21:18;;;;;;;;;;;22.40;26.60;;;;;;462768;257;1668;-40
2022/03/04 01:23:19;;;;;;;;;;;22.40;26.60;;;;;;462817;257;2199;-40
2022/03/04 01:25:20;;;;;;;;;;;22.40;26.60;;;;;;463227;257;1244;-40
2022/03/04 01:27:22;;;;;;;;;;;22.40;26.60;;;;;;462746;257;1225;-40
2022/03/04 01:29:23;;;;;;;;;;;22.40;26.60;;;;;;462930;257;1166;-40
2022/03/04 01:31:24;;;;;;;;;;;22.30;26.50;;;;;;463078;257;1330;-40
2022/03/04 01:33:26;;;;;;;;;;;22.30;26.60;;;;;;463184;257;1256;-40
2022/03/04 01:35:27;;;;;;;;;;;22.30;26.60;;;;;;463175;257;1389;-40
2022/03/04 01:37:28;;;;;;;;;;;22.30;26.60;;;;;;462758;257;1487;-40
2022/03/04 01:39:30;;;;;;;;;;;22.30;26.60;;;;;;462792;257;1052;-40
2022/03/04 01:41:31;;;;;;;;;;;22.30;26.60;;;;;;463010;257;2159;-40
2022/03/04 01:43:32;;;;;;;;;;;22.30;26.60;;;;;;462769;257;1071;-40
2022/03/04 01:45:33;;;;;;;;;;;22.30;26.60;;;;;;463140;257;1350;-40
2022/03/04 01:47:35;;;;;;;;;;;22.30;26.60;;;;;;462694;257;1361;-40
2022/03/04 01:49:36;;;;;;;;;;;22.30;26.60;;;;;;462843;257;1071;-40
2022/03/04 01:51:37;;;;;;;;;;;22.40;26.60;;;;;;463190;257;1462;-40
2022/03/04 01:53:39;;;;;;;;;;;22.30;26.50;;;;;;463235;257;1111;-40
2022/03/04 01:55:40;;;;;;;;;;;22.40;26.50;;;;;;463211;257;1291;-40
2022/03/04 01:57:41;;;;;;;;;;;22.40;26.60;;;;;;462690;257;1213;-40
2022/03/04 01:59:43;;;;;;;;;;;22.40;26.50;;;;;;463215;257;1035;-40
2022/03/04 02:01:44;;;;;;;;;;;22.40;26.50;;;;;;462656;257;2203;-40
2022/03/04 02:03:45;;;;;;;;;;;22.30;26.50;;;;;;463179;257;1295;-40
2022/03/04 02:05:47;;;;;;;;;;;22.30;26.60;;;;;;463223;257;1239;-40
2022/03/04 02:07:48;;;;;;;;;;;22.30;26.60;;;;;;462757;257;1163;-40
2022/03/04 02:09:49;;;;;;;;;;;22.40;26.60;;;;;;462817;257;1038;-40
2022/03/04 02:11:51;;;;;;;;;;;22.40;26.50;;;;;;462886;257;1133;-40
2022/03/04 02:13:52;;;;;;;;;;;22.40;26.60;;;;;;463206;257;1071;-40
2022/03/04 02:15:53;;;;;;;;;;;22.30;26.50;;;;;;463178;257;1447;-40
2022/03/04 02:17:55;;;;;;;;;;;22.30;26.60;;;;;;462733;257;1274;-40
2022/03/04 02:19:56;;;;;;;;;;;22.40;26.60;;;;;;463109;257;1115;-40
2022/03/04 02:21:57;;;;;;;;;;;22.40;26.50;;;;;;463163;257;2128;-40
2022/03/04 02:23:59;;;;;;;;;;;22.30;26.50;;;;;;463270;257;1025;-40
2022/03/04 02:26:00;;;;;;;;;;;22.40;26.50;;;;;;462822;257;1473;-40
2022/03/04 02:28:01;;;;;;;;;;;22.40;26.50;;;;;;462820;257;1362;-40
2022/03/04 02:30:02;;;;;;;;;;;22.40;26.50;;;;;;463002;257;1059;-40
2022/03/04 02:32:04;;;;;;;;;;;22.30;26.50;;;;;;463031;257;1188;-40
2022/03/04 02:34:05;;;;;;;;;;;22.30;26.50;;;;;;462863;255;2106;-40
2022/03/04 02:36:06;;;;;;;;;;;22.30;26.50;;;;;;462689;257;1200;-40
2022/03/04 02:38:08;;;;;;;;;;;22.30;26.50;;;;;;462701;257;1205;-40
2022/03/04 02:40:09;;;;;;;;;;;22.30;26.50;;;;;;463179;257;1240;-40
2022/03/04 02:42:10;;;;;;;;;;;22.30;26.50;;;;;;462697;257;2213;-40
2022/03/04 02:44:12;;;;;;;;;;;22.40;26.50;;;;;;463231;257;1059;-40
2022/03/04 02:46:13;;;;;;;;;;;22.40;26.50;;;;;;463166;257;1292;-40
2022/03/04 02:48:14;;;;;;;;;;;22.40;26.50;;;;;;463059;257;1235;-40
2022/03/04 02:50:16;;;;;;;;;;;22.40;26.50;;;;;;462767;257;956;-40
2022/03/04 02:52:17;;;;;;;;;;;22.40;26.50;;;;;;462682;257;1768;-40
2022/03/04 02:54:18;;;;;;;;;;;22.40;26.50;;;;;;463006;257;1045;-40
2022/03/04 02:56:20;;;;;;;;;;;22.40;26.40;;;;;;462678;257;1215;-40
2022/03/04 02:58:21;;;;;;;;;;;22.30;26.50;;;;;;462786;257;1677;-40
2022/03/04 03:00:22;;;;;;;;;;;22.40;26.50;;;;;;463031;257;1396;-40
2022/03/04 03:02:24;;;;;;;;;;;22.40;26.50;;;;;;462749;257;2202;-40
2022/03/04 03:04:25;;;;;;;;;;;22.40;26.50;;;;;;463211;257;1260;-40
2022/03/04 03:06:26;;;;;;;;;;;22.40;26.50;;;;;;463101;257;1361;-40
2022/03/04 03:08:28;;;;;;;;;;;22.40;26.50;;;;;;463085;257;1042;-40
2022/03/04 03:10:31;;;;;;;;;;;22.40;26.50;;;;;;462746;257;1146;-40
2022/03/04 03:12:30;;;;;;;;;;;22.40;26.50;;;;;;462722;256;2122;-40
2022/03/04 03:14:32;;;;;;;;;;;22.40;26.50;;;;;;463251;257;1068;-40
2022/03/04 03:16:33;;;;;;;;;;;22.40;26.40;;;;;;463161;257;1239;-40
2022/03/04 03:18:34;;;;;;;;;;;22.40;26.40;;;;;;463195;257;1046;-40
2022/03/04 03:20:36;;;;;;;;;;;22.40;26.40;;;;;;462767;257;1083;-40
2022/03/04 03:22:37;;;;;;;;;;;22.40;26.30;;;;;;463151;257;2128;-40
2022/03/04 03:24:38;;;;;;;;;;;22.40;26.40;;;;;;462856;257;1046;-40
2022/03/04 03:26:40;;;;;;;;;;;22.40;26.50;;;;;;462758;254;1204;-40
2022/03/04 03:28:41;;;;;;;;;;;22.40;26.40;;;;;;462920;257;1230;-40
2022/03/04 03:30:42;;;;;;;;;;;22.40;26.50;;;;;;462795;257;1106;-40
2022/03/04 03:32:44;;;;;;;;;;;22.40;26.40;;;;;;463178;257;1229;-40
2022/03/04 03:34:45;;;;;;;;;;;22.50;26.40;;;;;;463047;257;1068;-40
2022/03/04 03:36:46;;;;;;;;;;;22.40;26.40;;;;;;462756;257;1428;-40
2022/03/04 03:38:48;;;;;;;;;;;22.40;26.50;;;;;;462824;257;1113;-40
2022/03/04 03:40:49;;;;;;;;;;;22.40;26.40;;;;;;463179;257;1231;-40
2022/03/04 03:42:50;;;;;;;;;;;22.40;26.50;;;;;;462745;257;2136;-38
2022/03/04 03:44:52;;;;;;;;;;;22.40;26.50;;;;;;463238;257;1069;-40
2022/03/04 03:46:53;;;;;;;;;;;22.40;26.50;;;;;;463137;257;1333;-40
2022/03/04 03:48:54;;;;;;;;;;;22.40;26.40;;;;;;462793;257;1075;-40
2022/03/04 03:50:56;;;;;;;;;;;22.40;26.50;;;;;;462739;257;1198;-40
2022/03/04 03:52:57;;;;;;;;;;;22.50;26.40;;;;;;463212;257;1605;-40
2022/03/04 03:54:58;;;;;;;;;;;22.50;26.50;;;;;;462955;257;987;-40
2022/03/04 03:57:00;;;;;;;;;;;22.40;26.40;;;;;;462758;257;1319;-40
2022/03/04 03:59:01;;;;;;;;;;;22.50;26.50;;;;;;462883;257;1229;-40
2022/03/04 04:01:02;;;;;;;;;;;22.50;26.50;;;;;;462724;257;1490;-40
2022/03/04 04:03:04;;;;;;;;;;;22.50;26.50;;;;;;463042;257;2207;-40
2022/03/04 04:05:05;;;;;;;;;;;22.50;26.50;;;;;;463185;257;1089;-40
2022/03/04 04:07:07;;;;;;;;;;;22.50;26.50;;;;;;462706;257;1285;-40
2022/03/04 04:09:08;;;;;;;;;;;22.40;26.50;;;;;;463214;257;1344;-40
2022/03/04 04:11:09;;;;;;;;;;;22.50;26.50;;;;;;462723;257;1428;-40
2022/03/04 04:13:11;;;;;;;;;;;22.50;26.50;;;;;;462816;257;1143;-40
2022/03/04 04:15:12;;;;;;;;;;;22.50;26.50;;;;;;463231;257;1088;-40
2022/03/04 04:17:13;;;;;;;;;;;22.40;26.50;;;;;;463115;257;1187;-40
2022/03/04 04:19:15;;;;;;;;;;;22.40;26.60;;;;;;463197;257;1113;-40
2022/03/04 04:21:16;;;;;;;;;;;22.40;26.50;;;;;;462897;257;1368;-40
2022/03/04 04:23:17;;;;;;;;;;;22.50;26.50;;;;;;463069;257;2132;-40
2022/03/04 04:25:19;;;;;;;;;;;22.40;26.50;;;;;;463134;257;1075;-40
2022/03/04 04:27:20;;;;;;;;;;;22.40;26.60;;;;;;462659;257;1233;-40
2022/03/04 04:29:21;;;;;;;;;;;22.50;26.60;;;;;;462795;257;1270;-40
2022/03/04 04:31:22;;;;;;;;;;;22.50;26.50;;;;;;463111;257;1345;-40
2022/03/04 04:33:24;;;;;;;;;;;22.50;26.60;;;;;;462762;257;1126;-40
2022/03/04 04:35:25;;;;;;;;;;;22.50;26.60;;;;;;463153;257;1065;-40
2022/03/04 04:37:26;;;;;;;;;;;22.50;26.60;;;;;;462641;257;1159;-40
2022/03/04 04:39:28;;;;;;;;;;;22.50;26.60;;;;;;463151;257;1047;-40
2022/03/04 04:41:29;;;;;;;;;;;22.40;26.50;;;;;;462674;257;1199;-40
2022/03/04 04:43:31;;;;;;;;;;;22.50;26.60;;;;;;463069;257;2219;-40
2022/03/04 04:45:32;;;;;;;;;;;22.40;26.60;;;;;;462802;257;1185;-40
2022/03/04 04:47:34;;;;;;;;;;;22.50;26.60;;;;;;462680;257;1337;-40
2022/03/04 04:49:37;;;;;;;;;;;22.50;26.50;;;;;;463040;257;1258;-40
2022/03/04 04:51:37;;;;;;;;;;;22.50;26.60;;;;;;462714;257;2480;-40
2022/03/04 04:53:38;;;;;;;;;;;22.40;26.60;;;;;;463228;257;1195;-40
2022/03/04 04:55:40;;;;;;;;;;;22.50;26.60;;;;;;463124;257;1186;-40
2022/03/04 04:57:41;;;;;;;;;;;22.40;26.60;;;;;;463183;257;1110;-40
2022/03/04 04:59:42;;;;;;;;;;;22.50;26.60;;;;;;462964;257;1218;-40
2022/03/04 05:01:44;;;;;;;;;;;22.40;26.60;;;;;;462941;257;1332;-38
2022/03/04 05:03:45;;;;;;;;;;;22.40;26.60;;;;;;462730;257;2133;-40
2022/03/04 05:05:47;;;;;;;;;;;22.40;26.60;;;;;;462852;257;1443;-40
2022/03/04 05:07:48;;;;;;;;;;;22.40;26.60;;;;;;462749;257;1266;-40
2022/03/04 05:09:49;;;;;;;;;;;22.40;26.60;;;;;;463201;257;1088;-40
2022/03/04 05:11:51;;;;;;;;;;;22.40;26.60;;;;;;462862;257;1220;-40
2022/03/04 05:13:52;;;;;;;;;;;22.50;26.60;;;;;;463113;257;1244;-40
2022/03/04 05:15:53;;;;;;;;;;;22.40;26.60;;;;;;462746;257;1188;-40
2022/03/04 05:17:55;;;;;;;;;;;22.50;26.60;;;;;;462753;257;1098;-40
2022/03/04 05:19:56;;;;;;;;;;;22.40;26.60;;;;;;462816;257;1064;-40
2022/03/04 05:21:57;;;;;;;;;;;22.40;26.60;;;;;;462607;253;1370;-40
2022/03/04 05:24:02;;;;;;;;;;;22.40;26.60;;;;;;462691;257;2219;-40
2022/03/04 05:26:03;;;;;;;;;;;22.40;26.60;;;;;;463126;257;1176;-40
2022/03/04 05:28:04;;;;;;;;;;;22.50;26.60;;;;;;463148;257;1065;-40
2022/03/04 05:30:05;;;;;;;;;;;22.40;26.50;;;;;;462735;257;1175;-41
2022/03/04 05:32:07;;;;;;;;;;;22.50;26.50;;;;;;462685;257;1344;-40
2022/03/04 05:34:08;;;;;;;;;;;22.40;26.50;;;;;;462742;257;1246;-40
2022/03/04 05:36:09;;;;;;;;;;;22.40;26.60;;;;;;462826;257;1225;-40
2022/03/04 05:38:11;;;;;;;;;;;22.40;26.50;;;;;;463157;257;1241;-40
2022/03/04 05:40:12;;;;;;;;;;;22.50;26.60;;;;;;462668;257;1080;-40
2022/03/04 05:42:14;;;;;;;;;;;22.50;26.60;;;;;;462627;257;1187;-40
2022/03/04 05:44:15;;;;;;;;;;;22.50;26.50;;;;;;463054;257;2203;-40
2022/03/04 05:46:16;;;;;;;;;;;22.40;26.50;;;;;;463100;257;1176;-40
2022/03/04 05:48:17;;;;;;;;;;;22.40;26.50;;;;;;463069;257;1322;-40
2022/03/04 05:50:19;;;;;;;;;;;22.40;26.60;;;;;;462818;257;1126;-40
2022/03/04 05:52:20;;;;;;;;;;;22.40;26.60;;;;;;462814;257;1744;-40
2022/03/04 05:54:21;;;;;;;;;;;22.50;26.50;;;;;;463098;257;1197;-40
2022/03/04 05:56:23;;;;;;;;;;;22.50;26.50;;;;;;462766;257;1158;-40
2022/03/04 05:58:24;;;;;;;;;;;22.40;26.50;;;;;;463037;257;1270;-40
2022/03/04 06:00:27;;;;;;;;;;;22.40;26.60;;;;;;462817;257;1252;-40
2022/03/04 06:02:28;;;;;;;;;;;22.40;26.60;;;;;;462749;257;2207;-40
2022/03/04 06:04:28;;;;;;;;;;;22.40;26.50;;;;;;462635;257;2251;-40
2022/03/04 06:06:30;;;;;;;;;;;22.40;26.50;;;;;;462863;257;1221;-40
2022/03/04 06:08:31;;;;;;;;;;;22.50;26.50;;;;;;462433;257;1312;-40
2022/03/04 06:10:32;;;;;;;;;;;22.40;26.50;;;;;;462467;257;1604;-40
2022/03/04 06:12:34;;;;;;;;;;;22.40;26.50;;;;;;462666;257;1252;-40
2022/03/04 06:14:35;;;;;;;;;;;22.40;26.60;;;;;;462772;257;1201;-40
2022/03/04 06:16:36;;;;;;;;;;;22.40;26.60;;;;;;462580;257;1214;-40
2022/03/04 06:18:38;;;;;;;;;;;22.40;26.50;;;;;;462501;257;1246;-40
2022/03/04 06:20:39;;;;;;;;;;;22.40;26.50;;;;;;462959;257;1066;-40
2022/03/04 06:22:40;;;;;;;;;;;22.40;26.50;;;;;;462823;257;1209;-40
2022/03/04 06:24:42;;;;;;;;;;;22.40;26.50;;;;;;462812;254;2155;-40
2022/03/04 06:26:43;;;;;;;;;;;22.40;26.50;;;;;;462539;253;1505;-40
2022/03/04 06:28:45;;;;;;;;;;;22.40;26.50;;;;;;462477;257;1515;-40
2022/03/04 06:30:46;;;;;;;;;;;22.40;26.60;;;;;;462436;257;2382;-40
2022/03/04 06:32:47;;;;;;;;;;;22.40;26.50;;;;;;462267;257;1315;-40
2022/03/04 06:34:48;;;;;;;;;;;22.40;26.50;;;;;;462792;257;1407;-40
2022/03/04 06:36:49;;;;;;;;;;;22.40;26.60;;;;;;462510;253;1195;-40
2022/03/04 06:38:51;;;;;;;;;;;22.40;26.60;;;;;;462547;257;1243;-40
2022/03/04 06:40:52;;;;;;;;;;;22.30;26.60;;;;;;462592;257;1181;-40
2022/03/04 06:42:53;;;;;;;;;;;22.40;26.50;;;;;;462571;257;1187;-40
2022/03/04 06:44:55;;;;;;;;;;;22.40;26.60;;;;;;462790;257;2128;-40
2022/03/04 06:46:56;;;;;;;;;;;22.40;26.60;;;;;;462474;257;1405;-40
2022/03/04 06:48:57;;;;;;;;;;;22.40;26.50;;;;;;462575;257;1249;-40
2022/03/04 06:50:59;;;;;;;;;;;22.40;26.50;;;;;;462587;257;1951;-40
2022/03/04 06:53:00;;;;;;;;;;;22.40;26.50;;;;;;462819;257;1269;-40
2022/03/04 06:55:04;;;;;;;;;;;22.40;26.60;;;;;;462661;257;1314;-40
2022/03/04 06:57:03;;;;;;;;;;;22.40;26.50;;;;;;462383;257;2190;-40
2022/03/04 06:59:04;;;;;;;;;;;22.40;26.50;;;;;;462527;257;1196;-40
2022/03/04 07:01:05;;;;;;;;;;;22.40;26.50;;;;;;462546;257;1328;-40
2022/03/04 07:03:07;;;;;;;;;;;22.40;26.50;;;;;;462756;257;1080;-40
2022/03/04 07:05:08;;;;;;;;;;;22.40;26.50;;;;;;462492;257;2206;-40
2022/03/04 07:07:09;;;;;;;;;;;22.40;26.50;;;;;;462674;257;1256;-40
2022/03/04 07:09:11;;;;;;;;;;;22.40;26.50;;;;;;462459;257;1090;-40
2022/03/04 07:11:12;;;;;;;;;;;22.40;26.50;;;;;;462396;257;1146;-40
2022/03/04 07:13:13;;;;;;;;;;;22.40;26.40;;;;;;462608;257;1070;-40
2022/03/04 07:15:15;;;;;;;;;;;22.40;26.50;;;;;;462532;257;1158;-40
2022/03/04 07:17:16;;;;;;;;;;;22.40;26.50;;;;;;462410;257;1288;-40
2022/03/04 07:19:17;;;;;;;;;;;22.40;26.40;;;;;;462504;257;1084;-40
2022/03/04 07:21:18;;;;;;;;;;;22.40;26.50;;;;;;462443;257;1160;-40
2022/03/04 07:23:20;;;;;;;;;;;22.40;26.40;;;;;;462477;257;1121;-40
2022/03/04 07:25:22;;;;;;;;;;;22.40;26.30;;;;;;462622;257;2151;-40
2022/03/04 07:27:23;;;;;;;;;;;22.40;26.30;;;;;;462359;257;1161;-40
2022/03/04 07:29:25;;;;;;;;;;;22.50;26.30;;;;;;462466;257;1096;-40
2022/03/04 07:31:26;;;;;;;;;;;22.50;26.30;;;;;;462602;257;1335;-40
2022/03/04 07:33:27;;;;;;;;;;;22.50;26.20;;;;;;462436;257;1333;-40
2022/03/04 07:35:29;;;;;;;;;;;22.50;26.20;;;;;;462280;257;1240;-40
2022/03/04 07:37:30;;;;;;;;;;;22.50;26.20;;;;;;462212;257;1210;-40
2022/03/04 07:39:31;;;;;;;;;;;22.50;26.20;;;;;;462444;257;1197;-40
2022/03/04 07:41:33;;;;;;;;;;;22.50;26.20;;;;;;462759;257;1374;-40
2022/03/04 07:43:34;;;;;;;;;;;22.60;26.20;;;;;;462390;257;1131;-40
2022/03/04 07:45:35;;;;;;;;;;;22.60;26.10;;;;;;462388;257;2136;-40
2022/03/04 07:47:37;;;;;;;;;;;22.60;26.20;;;;;;462248;257;1261;-40
2022/03/04 07:49:38;;;;;;;;;;;22.50;26.10;;;;;;462213;257;1447;-40
2022/03/04 07:51:39;;;;;;;;;;;22.60;26.10;;;;;;462232;257;1240;-40
2022/03/04 07:53:41;;;;;;;;;;;22.60;26.20;;;;;;462240;257;1094;-40
2022/03/04 07:55:42;;;;;;;;;;;22.60;26.10;;;;;;462385;257;1314;-40
2022/03/04 07:57:44;;;;;;;;;;;22.60;26.10;;;;;;462692;257;1064;-40
2022/03/04 07:59:45;;;;;;;;;;;22.60;26.10;;;;;;462367;257;1071;-40
2022/03/04 08:01:46;;;;;;;;;;;22.60;26.10;;;;;;462309;257;1333;-40
2022/03/04 08:03:47;;;;;;;;;;;22.50;26.10;;;;;;462209;257;2224;-40
2022/03/04 08:05:49;;;;;;;;;;;22.50;26.20;;;;;;462024;257;1571;-40
2022/03/04 08:07:50;;;;;;;;;;;22.50;26.10;;;;;;462080;257;1141;-40
2022/03/04 08:09:51;;;;;;;;;;;22.50;26.20;;;;;;462185;257;1110;-40
2022/03/04 08:11:53;;;;;;;;;;;22.50;26.10;;;;;;462274;257;1356;-40
2022/03/04 08:13:54;;;;;;;;;;;22.50;26.10;;;;;;462093;257;1214;-40
2022/03/04 08:15:56;;;;;;;;;;;22.50;26.00;;;;;;462064;257;1710;-40
2022/03/04 08:17:57;;;;;;;;;;;22.50;26.10;;;;;;462185;257;1367;-40
2022/03/04 08:19:58;;;;;;;;;;;22.50;26.10;;;;;;462315;257;1214;-40
2022/03/04 08:21:59;;;;;;;;;;;22.50;26.10;;;;;;462164;257;1598;-40
2022/03/04 08:24:01;;;;;;;;;;;22.40;26.10;;;;;;462226;257;2207;-40
2022/03/04 08:26:03;;;;;;;;;;;22.50;26.10;;;;;;462151;257;1366;-40
2022/03/04 08:28:03;;;;;;;;;;;22.50;26.00;;;;;;462099;257;2077;-40
2022/03/04 08:30:05;;;;;;;;;;;22.50;26.00;;;;;;462215;257;1146;-40
2022/03/04 08:32:06;;;;;;;;;;;22.50;26.00;;;;;;462077;257;1205;-40
2022/03/04 08:34:07;;;;;;;;;;;22.50;26.00;;;;;;462203;257;1117;-40
2022/03/04 08:36:09;;;;;;;;;;;22.50;26.00;;;;;;461906;257;1354;-40
2022/03/04 08:38:10;;;;;;;;;;;22.60;26.00;;;;;;462521;257;1192;-40
2022/03/04 08:40:11;;;;;;;;;;;22.50;25.90;;;;;;462234;257;1110;-40
2022/03/04 08:42:13;;;;;;;;;;;22.50;25.90;;;;;;462148;257;1224;-40
2022/03/04 08:44:14;;;;;;;;;;;22.50;26.00;;;;;;462303;257;2195;-40
2022/03/04 08:46:15;;;;;;;;;;;22.60;26.00;;;;;;462140;257;1301;-40
2022/03/04 08:48:16;;;;;;;;;;;22.50;25.90;;;;;;462169;257;1263;-41
2022/03/04 08:50:19;;;;;;;;;;;22.60;26.00;;;;;;462114;257;1120;-40
2022/03/04 08:52:19;;;;;;;;;;;22.50;25.90;;;;;;462024;257;1761;-40
2022/03/04 08:54:20;;;;;;;;;;;22.50;25.90;;;;;;462153;257;1166;-40
2022/03/04 08:56:22;;;;;;;;;;;22.50;26.00;;;;;;462185;257;1323;-40
2022/03/04 08:58:23;;;;;;;;;;;22.50;25.90;;;;;;462406;257;1225;-40
2022/03/04 09:00:26;;;;;;;;;;;22.60;25.90;;;;;;462121;257;1208;-40
2022/03/04 09:02:26;;;;;;;;;;;22.60;26.00;;;;;;461982;257;1874;-40
2022/03/04 09:04:27;;;;;;;;;;;22.60;26.00;;;;;;462204;257;2207;-40
2022/03/04 09:06:28;;;;;;;;;;;22.50;25.90;;;;;;462208;257;1468;-40
2022/03/04 09:08:30;;;;;;;;;;;22.60;26.00;;;;;;462264;257;1177;-40
2022/03/04 09:10:31;;;;;;;;;;;22.60;26.00;;;;;;462143;257;1092;-40
2022/03/04 09:12:33;;;;;;;;;;;22.60;26.00;;;;;;462545;257;1275;-40
2022/03/04 09:14:34;;;;;;;;;;;22.60;26.00;;;;;;462073;257;1097;-40
2022/03/04 09:16:35;;;;;;;;;;;22.60;26.00;;;;;;461930;257;1350;-40
2022/03/04 09:18:37;;;;;;;;;;;22.60;26.00;;;;;;462066;257;1242;-40
2022/03/04 09:20:38;;;;;;;;;;;22.60;26.00;;;;;;462106;257;1322;-40
2022/03/04 09:22:39;;;;;;;;;;;22.60;26.00;;;;;;462067;257;1106;-40
2022/03/04 09:24:41;;;;;;;;;;;22.60;26.00;;;;;;462058;257;2222;-40
2022/03/04 09:26:42;;;;;;;;;;;22.60;26.00;;;;;;461954;257;1430;-40
2022/03/04 09:28:43;;;;;;;;;;;22.60;26.00;;;;;;462068;257;1249;-40
2022/03/04 09:30:44;;;;;;;;;;;22.60;26.00;;;;;;462197;257;1217;-40
2022/03/04 09:32:46;;;;;;;;;;;22.60;26.00;;;;;;462504;257;1231;-40
2022/03/04 09:34:48;;;;;;;;;;;22.60;26.00;;;;;;462119;257;1132;-40
2022/03/04 09:36:49;;;;;;;;;;;22.50;26.00;;;;;;462227;257;1375;-40
2022/03/04 09:38:50;;;;;;;;;;;22.50;26.00;;;;;;462304;257;1203;-40
2022/03/04 09:40:51;;;;;;;;;;;22.60;26.10;;;;;;462149;257;1250;-40
2022/03/04 09:42:53;;;;;;;;;;;22.60;26.00;;;;;;462192;257;1299;-40
2022/03/04 09:44:54;;;;;;;;;;;22.60;26.00;;;;;;462144;257;2199;-40
2022/03/04 09:46:57;;;;;;;;;;;22.60;26.00;;;;;;462183;257;1216;-40
2022/03/04 09:48:57;;;;;;;;;;;22.60;26.00;;;;;;462066;257;2156;-40
2022/03/04 09:50:58;;;;;;;;;;;22.60;26.00;;;;;;462112;257;1117;-40
2022/03/04 09:53:01;;;;;;;;;;;22.60;26.00;;;;;;462163;257;1169;-40
2022/03/04 09:55:01;;;;;;;;;;;22.60;26.00;;;;;;461801;257;2144;-40
2022/03/04 09:57:02;;;;;;;;;;;22.60;26.00;;;;;;461876;257;1281;-40
2022/03/04 09:59:03;;;;;;;;;;;22.50;26.00;;;;;;462086;257;1418;-40
2022/03/04 10:01:05;;;;;;;;;;;22.60;26.10;;;;;;462126;257;1248;-40
2022/03/04 10:03:06;;;;;;;;;;;22.50;26.00;;;;;;462325;257;1249;-40
2022/03/04 10:05:08;;;;;;;;;;;22.50;26.10;;;;;;462232;257;2132;-40
2022/03/04 10:07:10;;;;;;;;;;;22.50;26.10;;;;;;462056;257;1438;-40
2022/03/04 10:09:11;;;;;;;;;;;22.60;26.10;;;;;;462281;257;1293;-40
2022/03/04 10:11:13;;;;;;;;;;;22.50;26.00;;;;;;462212;257;1355;-40
2022/03/04 10:13:14;;;;;;;;;;;22.50;26.00;;;;;;462152;257;1580;-40
2022/03/04 10:15:15;;;;;;;;;;;22.50;26.00;;;;;;462231;257;1111;-40
2022/03/04 10:17:17;;;;;;;;;;;22.50;26.00;;;;;;462034;257;1196;-40
2022/03/04 10:19:18;;;;;;;;;;;22.40;26.00;;;;;;462194;257;1951;-40
2022/03/04 10:21:19;;;;;;;;;;;22.40;26.00;;;;;;462206;257;1533;-40
2022/03/04 10:23:21;;;;;;;;;;;22.40;26.00;;;;;;462387;257;1415;-40
2022/03/04 10:25:22;;;;;;;;;;;22.40;26.00;;;;;;462107;257;2199;-40
2022/03/04 10:27:24;;;;;;;;;;;22.40;26.00;;;;;;462195;257;1298;-40
2022/03/04 10:29:25;;;;;;;;;;;22.30;26.00;;;;;;462165;257;1107;-40
2022/03/04 10:31:26;;;;;;;;;;;22.40;26.00;;;;;;462059;257;1224;-40
2022/03/04 10:33:27;;;;;;;;;;;22.40;26.00;;;;;;462046;257;1283;-40
2022/03/04 10:35:29;;;;;;;;;;;22.30;26.00;;;;;;462074;257;1313;-40
2022/03/04 10:37:30;;;;;;;;;;;22.30;26.00;;;;;;461584;257;1287;-40
2022/03/04 10:39:32;;;;;;;;;;;22.30;26.00;;;;;;462138;257;1102;-40
2022/03/04 10:41:35;;;;;;;;;;;22.40;26.00;;;;;;462115;257;2154;-40
2022/03/04 10:43:35;;;;;;;;;;;22.40;25.90;;;;;;462068;256;1327;-40
2022/03/04 10:45:36;;;;;;;;;;;22.40;26.00;;;;;;461978;257;2198;-40
2022/03/04 10:47:37;;;;;;;;;;;22.30;26.00;;;;;;461996;257;1255;-40
2022/03/04 10:49:38;;;;;;;;;;;22.30;26.00;;;;;;462179;257;1212;-40
2022/03/04 10:51:39;;;;;;;;;;;22.40;25.90;;;;;;462090;257;1321;-40
2022/03/04 10:53:41;;;;;;;;;;;22.30;25.90;;;;;;462150;257;1068;-40
2022/03/04 10:55:42;;;;;;;;;;;22.30;25.90;;;;;;462032;257;1304;-40
2022/03/04 10:57:43;;;;;;;;;;;22.30;25.90;;;;;;462086;257;1269;-40
2022/03/04 10:59:45;;;;;;;;;;;22.30;25.90;;;;;;462246;257;1094;-40
2022/03/04 11:01:46;;;;;;;;;;;22.30;25.90;;;;;;462040;257;1541;-40
2022/03/04 11:03:48;;;;;;;;;;;22.30;25.90;;;;;;461641;257;1197;-40
2022/03/04 11:05:49;;;;;;;;;;;22.30;25.90;;;;;;462200;257;2152;-40
2022/03/04 11:07:50;;;;;;;;;;;22.20;25.90;;;;;;462063;257;1235;-40
2022/03/04 11:09:52;;;;;;;;;;;22.20;25.90;;;;;;462269;257;1268;-40
2022/03/04 11:11:53;;;;;;;;;;;22.30;25.90;;;;;;462243;257;1335;-40
2022/03/04 11:13:54;;;;;;;;;;;22.20;25.90;;;;;;462336;257;1083;-40
2022/03/04 11:15:56;;;;;;;;;;;22.30;25.90;;;;;;462174;257;1477;-40
2022/03/04 11:17:57;;;;;;;;;;;22.20;25.90;;;;;;462121;257;1099;-40
2022/03/04 11:19:58;;;;;;;;;;;22.20;25.90;;;;;;462391;257;1260;-40
2022/03/04 11:22:00;;;;;;;;;;;22.20;25.90;;;;;;462187;257;1660;-40
2022/03/04 11:24:01;;;;;;;;;;;22.20;25.80;;;;;;462207;257;1102;-40
2022/03/04 11:26:02;;;;;;;;;;;22.20;25.80;;;;;;462168;257;2207;-41
2022/03/04 11:28:04;;;;;;;;;;;22.20;25.80;;;;;;462173;257;1240;-40
2022/03/04 11:30:05;;;;;;;;;;;22.20;25.80;;;;;;462022;255;2014;-40
2022/03/04 11:32:06;;;;;;;;;;;22.20;25.80;;;;;;462129;257;1264;-40
2022/03/04 11:34:08;;;;;;;;;;;22.20;25.80;;;;;;462215;257;1233;-40
2022/03/04 11:36:09;;;;;;;;;;;22.20;25.80;;;;;;462207;257;1309;-40
2022/03/04 11:38:10;;;;;;;;;;;22.20;25.80;;;;;;462057;257;1179;-40
2022/03/04 11:40:33;;;;;;;;;;;22.20;25.80;;;;;;462162;257;1174;-40
2022/03/04 11:42:14;;;;;;;;;;;22.20;25.80;;;;;;460981;258;1848;-40
2022/03/04 11:44:14;;;;;;;;;;;22.20;25.80;;;;;;462306;256;2445;-40
2022/03/04 11:46:16;;;;;;;;;;;22.20;25.70;;;;;;462035;257;2136;-40
2022/03/04 11:48:17;;;;;;;;;;;22.30;25.70;;;;;;462791;257;1205;-40
2022/03/04 11:50:18;;;;;;;;;;;22.20;25.70;;;;;;462334;257;1222;-40
2022/03/04 11:52:21;;;;;;;;;;;22.20;25.70;;;;;;462211;257;1504;-40
2022/03/04 11:54:21;;;;;;;;;;;22.20;25.70;;;;;;462163;257;2446;-40
2022/03/04 11:56:25;;;;;;;;;;;22.30;25.60;;;;;;462127;257;1324;-40